sensor_id;sensor_type;location;lat;lon;timestamp;P1;durP1;ratioP1;P2;durP2;ratioP2
70985;SDS011;58645;43.068;25.610;2022-12-18T00:01:53;5.20;;;3.10;;
70985;SDS011;58645;43.068;25.610;2022-12-18T00:04:22;4.47;;;2.60;;
70985;SDS011;58645;43.068;25.610;2022-12-18T00:06:49;4.55;;;2.55;;
70985;SDS011;58645;43.068;25.610;2022-12-18T00:09:15;4.63;;;2.30;;
70985;SDS011;58645;43.068;25.610;2022-12-18T00:11:41;3.50;;;2.50;;
70985;SDS011;58645;43.068;25.610;2022-12-18T00:14:06;5.35;;;3.05;;
70985;SDS011;58645;43.068;25.610;2022-12-18T00:16:34;7.53;;;3.70;;
70985;SDS011;58645;43.068;25.610;2022-12-18T00:19:02;4.75;;;2.97;;
70985;SDS011;58645;43.068;25.610;2022-12-18T00:21:29;6.72;;;3.22;;
70985;SDS011;58645;43.068;25.610;2022-12-18T00:23:56;5.47;;;3.42;;
70985;SDS011;58645;43.068;25.610;2022-12-18T00:26:24;6.28;;;3.60;;
70985;SDS011;58645;43.068;25.610;2022-12-18T00:28:51;13.23;;;6.78;;
70985;SDS011;58645;43.068;25.610;2022-12-18T00:31:18;13.57;;;7.53;;
70985;SDS011;58645;43.068;25.610;2022-12-18T00:33:46;11.98;;;6.30;;
70985;SDS011;58645;43.068;25.610;2022-12-18T00:36:16;12.63;;;7.45;;
70985;SDS011;58645;43.068;25.610;2022-12-18T00:38:44;11.52;;;6.25;;
70985;SDS011;58645;43.068;25.610;2022-12-18T00:43:37;10.00;;;5.50;;
70985;SDS011;58645;43.068;25.610;2022-12-18T00:48:29;8.93;;;5.38;;
70985;SDS011;58645;43.068;25.610;2022-12-18T00:50:55;8.32;;;4.80;;
70985;SDS011;58645;43.068;25.610;2022-12-18T00:53:21;10.10;;;4.85;;
70985;SDS011;58645;43.068;25.610;2022-12-18T00:55:47;8.35;;;4.65;;
70985;SDS011;58645;43.068;25.610;2022-12-18T00:58:13;9.63;;;5.90;;
70985;SDS011;58645;43.068;25.610;2022-12-18T01:00:40;9.88;;;5.45;;
70985;SDS011;58645;43.068;25.610;2022-12-18T01:03:06;7.82;;;4.45;;
70985;SDS011;58645;43.068;25.610;2022-12-18T01:05:32;8.57;;;4.78;;
70985;SDS011;58645;43.068;25.610;2022-12-18T01:07:58;8.57;;;5.40;;
70985;SDS011;58645;43.068;25.610;2022-12-18T01:10:25;7.55;;;4.53;;
70985;SDS011;58645;43.068;25.610;2022-12-18T01:12:51;6.72;;;3.85;;
70985;SDS011;58645;43.068;25.610;2022-12-18T01:15:17;7.68;;;4.03;;
70985;SDS011;58645;43.068;25.610;2022-12-18T01:17:43;6.88;;;3.75;;
70985;SDS011;58645;43.068;25.610;2022-12-18T01:20:10;5.85;;;3.10;;
70985;SDS011;58645;43.068;25.610;2022-12-18T01:22:36;6.20;;;3.10;;
70985;SDS011;58645;43.068;25.610;2022-12-18T01:25:03;5.90;;;3.38;;
70985;SDS011;58645;43.068;25.610;2022-12-18T01:27:29;6.63;;;3.13;;
70985;SDS011;58645;43.068;25.610;2022-12-18T01:29:55;5.35;;;3.15;;
70985;SDS011;58645;43.068;25.610;2022-12-18T01:32:21;10.55;;;3.78;;
70985;SDS011;58645;43.068;25.610;2022-12-18T01:34:47;7.47;;;4.75;;
70985;SDS011;58645;43.068;25.610;2022-12-18T01:37:13;6.47;;;4.20;;
70985;SDS011;58645;43.068;25.610;2022-12-18T01:39:39;6.25;;;4.05;;
70985;SDS011;58645;43.068;25.610;2022-12-18T01:42:14;7.03;;;4.15;;
70985;SDS011;58645;43.068;25.610;2022-12-18T01:47:33;7.60;;;4.28;;
70985;SDS011;58645;43.068;25.610;2022-12-18T01:53:18;5.10;;;3.30;;
70985;SDS011;58645;43.068;25.610;2022-12-18T01:55:48;6.05;;;3.17;;
70985;SDS011;58645;43.068;25.610;2022-12-18T01:58:18;5.78;;;3.22;;
70985;SDS011;58645;43.068;25.610;2022-12-18T02:00:46;6.03;;;3.42;;
70985;SDS011;58645;43.068;25.610;2022-12-18T02:03:12;6.85;;;3.85;;
70985;SDS011;58645;43.068;25.610;2022-12-18T02:13:38;6.03;;;3.45;;
70985;SDS011;58645;43.068;25.610;2022-12-18T02:19:33;5.25;;;2.88;;
70985;SDS011;58645;43.068;25.610;2022-12-18T02:22:13;6.13;;;3.30;;
70985;SDS011;58645;43.068;25.610;2022-12-18T02:27:54;6.72;;;3.80;;
70985;SDS011;58645;43.068;25.610;2022-12-18T02:30:25;5.70;;;3.13;;
70985;SDS011;58645;43.068;25.610;2022-12-18T02:32:54;5.50;;;3.05;;
70985;SDS011;58645;43.068;25.610;2022-12-18T02:35:23;5.63;;;3.30;;
70985;SDS011;58645;43.068;25.610;2022-12-18T02:37:54;6.22;;;3.50;;
70985;SDS011;58645;43.068;25.610;2022-12-18T02:40:22;4.72;;;2.80;;
70985;SDS011;58645;43.068;25.610;2022-12-18T02:42:49;5.70;;;2.75;;
70985;SDS011;58645;43.068;25.610;2022-12-18T02:45:15;5.10;;;2.88;;
70985;SDS011;58645;43.068;25.610;2022-12-18T02:47:42;8.90;;;3.50;;
70985;SDS011;58645;43.068;25.610;2022-12-18T03:00:58;7.00;;;3.95;;
70985;SDS011;58645;43.068;25.610;2022-12-18T03:06:20;7.97;;;4.45;;
70985;SDS011;58645;43.068;25.610;2022-12-18T03:08:54;8.55;;;4.20;;
70985;SDS011;58645;43.068;25.610;2022-12-18T03:11:24;8.48;;;4.50;;
70985;SDS011;58645;43.068;25.610;2022-12-18T03:14:12;10.65;;;4.72;;
70985;SDS011;58645;43.068;25.610;2022-12-18T03:16:40;9.85;;;4.63;;
70985;SDS011;58645;43.068;25.610;2022-12-18T03:19:11;9.75;;;4.70;;
70985;SDS011;58645;43.068;25.610;2022-12-18T03:21:45;9.77;;;5.13;;
70985;SDS011;58645;43.068;25.610;2022-12-18T03:24:12;9.25;;;4.80;;
70985;SDS011;58645;43.068;25.610;2022-12-18T03:26:41;9.70;;;5.38;;
70985;SDS011;58645;43.068;25.610;2022-12-18T03:29:16;9.05;;;5.18;;
70985;SDS011;58645;43.068;25.610;2022-12-18T03:31:49;10.75;;;5.80;;
70985;SDS011;58645;43.068;25.610;2022-12-18T03:34:21;11.43;;;5.72;;
70985;SDS011;58645;43.068;25.610;2022-12-18T03:36:50;12.52;;;6.47;;
70985;SDS011;58645;43.068;25.610;2022-12-18T03:39:15;11.48;;;5.80;;
70985;SDS011;58645;43.068;25.610;2022-12-18T03:42:25;13.20;;;6.32;;
70985;SDS011;58645;43.068;25.610;2022-12-18T03:52:30;13.93;;;6.65;;
70985;SDS011;58645;43.068;25.610;2022-12-18T03:55:02;12.70;;;6.43;;
70985;SDS011;58645;43.068;25.610;2022-12-18T03:57:30;14.80;;;7.10;;
70985;SDS011;58645;43.068;25.610;2022-12-18T03:59:59;18.65;;;9.82;;
70985;SDS011;58645;43.068;25.610;2022-12-18T04:02:29;27.02;;;16.52;;
70985;SDS011;58645;43.068;25.610;2022-12-18T04:04:57;18.00;;;10.15;;
70985;SDS011;58645;43.068;25.610;2022-12-18T04:07:26;16.98;;;8.18;;
70985;SDS011;58645;43.068;25.610;2022-12-18T04:09:53;12.75;;;6.32;;
70985;SDS011;58645;43.068;25.610;2022-12-18T04:12:23;12.02;;;6.05;;
70985;SDS011;58645;43.068;25.610;2022-12-18T04:14:51;14.50;;;6.68;;
70985;SDS011;58645;43.068;25.610;2022-12-18T04:17:17;12.73;;;6.13;;
70985;SDS011;58645;43.068;25.610;2022-12-18T04:19:43;12.90;;;6.80;;
70985;SDS011;58645;43.068;25.610;2022-12-18T04:22:11;14.40;;;7.10;;
70985;SDS011;58645;43.068;25.610;2022-12-18T04:24:37;11.65;;;6.70;;
70985;SDS011;58645;43.068;25.610;2022-12-18T04:27:03;12.55;;;6.57;;
70985;SDS011;58645;43.068;25.610;2022-12-18T04:29:29;12.25;;;6.70;;
70985;SDS011;58645;43.068;25.610;2022-12-18T04:31:55;15.40;;;7.70;;
70985;SDS011;58645;43.068;25.610;2022-12-18T04:34:21;16.92;;;8.93;;
70985;SDS011;58645;43.068;25.610;2022-12-18T04:36:47;19.33;;;9.38;;
70985;SDS011;58645;43.068;25.610;2022-12-18T04:39:13;19.77;;;9.75;;
70985;SDS011;58645;43.068;25.610;2022-12-18T04:41:39;17.50;;;8.93;;
70985;SDS011;58645;43.068;25.610;2022-12-18T04:44:04;20.02;;;8.75;;
70985;SDS011;58645;43.068;25.610;2022-12-18T04:46:30;15.68;;;8.02;;
70985;SDS011;58645;43.068;25.610;2022-12-18T04:48:56;23.83;;;11.93;;
70985;SDS011;58645;43.068;25.610;2022-12-18T04:51:22;28.48;;;14.07;;
70985;SDS011;58645;43.068;25.610;2022-12-18T04:53:47;34.92;;;16.80;;
70985;SDS011;58645;43.068;25.610;2022-12-18T04:56:14;39.30;;;19.77;;
70985;SDS011;58645;43.068;25.610;2022-12-18T04:58:41;35.88;;;18.27;;
70985;SDS011;58645;43.068;25.610;2022-12-18T05:01:08;33.10;;;15.40;;
70985;SDS011;58645;43.068;25.610;2022-12-18T05:03:35;25.13;;;11.25;;
70985;SDS011;58645;43.068;25.610;2022-12-18T05:08:27;18.25;;;8.95;;
70985;SDS011;58645;43.068;25.610;2022-12-18T05:11:00;15.60;;;8.52;;
70985;SDS011;58645;43.068;25.610;2022-12-18T05:13:30;15.85;;;7.88;;
70985;SDS011;58645;43.068;25.610;2022-12-18T05:15:55;17.05;;;7.63;;
70985;SDS011;58645;43.068;25.610;2022-12-18T05:18:22;12.77;;;6.78;;
70985;SDS011;58645;43.068;25.610;2022-12-18T05:20:49;13.35;;;6.82;;
70985;SDS011;58645;43.068;25.610;2022-12-18T05:23:15;17.48;;;7.32;;
70985;SDS011;58645;43.068;25.610;2022-12-18T05:25:41;14.32;;;7.60;;
70985;SDS011;58645;43.068;25.610;2022-12-18T05:28:07;14.80;;;7.97;;
70985;SDS011;58645;43.068;25.610;2022-12-18T05:30:33;14.75;;;7.60;;
70985;SDS011;58645;43.068;25.610;2022-12-18T05:32:59;13.85;;;7.60;;
70985;SDS011;58645;43.068;25.610;2022-12-18T05:35:24;14.52;;;7.43;;
70985;SDS011;58645;43.068;25.610;2022-12-18T05:37:50;16.60;;;7.82;;
70985;SDS011;58645;43.068;25.610;2022-12-18T05:40:16;13.50;;;6.82;;
70985;SDS011;58645;43.068;25.610;2022-12-18T05:42:42;14.82;;;7.25;;
70985;SDS011;58645;43.068;25.610;2022-12-18T05:45:07;14.40;;;7.07;;
70985;SDS011;58645;43.068;25.610;2022-12-18T05:47:33;16.10;;;7.32;;
70985;SDS011;58645;43.068;25.610;2022-12-18T05:49:59;14.02;;;7.10;;
70985;SDS011;58645;43.068;25.610;2022-12-18T05:52:25;13.43;;;7.57;;
70985;SDS011;58645;43.068;25.610;2022-12-18T05:54:51;14.20;;;7.22;;
70985;SDS011;58645;43.068;25.610;2022-12-18T05:57:16;13.52;;;7.20;;
70985;SDS011;58645;43.068;25.610;2022-12-18T05:59:42;13.55;;;6.95;;
70985;SDS011;58645;43.068;25.610;2022-12-18T06:02:08;14.13;;;7.07;;
70985;SDS011;58645;43.068;25.610;2022-12-18T06:04:33;13.63;;;7.18;;
70985;SDS011;58645;43.068;25.610;2022-12-18T06:06:59;14.20;;;7.00;;
70985;SDS011;58645;43.068;25.610;2022-12-18T06:09:25;15.13;;;7.85;;
70985;SDS011;58645;43.068;25.610;2022-12-18T06:11:51;13.52;;;6.63;;
70985;SDS011;58645;43.068;25.610;2022-12-18T06:14:17;11.02;;;6.18;;
70985;SDS011;58645;43.068;25.610;2022-12-18T06:16:43;12.05;;;5.85;;
70985;SDS011;58645;43.068;25.610;2022-12-18T06:19:12;10.98;;;6.05;;
70985;SDS011;58645;43.068;25.610;2022-12-18T06:21:40;11.88;;;5.60;;
70985;SDS011;58645;43.068;25.610;2022-12-18T06:24:06;11.18;;;5.35;;
70985;SDS011;58645;43.068;25.610;2022-12-18T06:26:32;10.32;;;5.43;;
70985;SDS011;58645;43.068;25.610;2022-12-18T06:28:58;13.07;;;6.38;;
70985;SDS011;58645;43.068;25.610;2022-12-18T06:31:24;13.60;;;6.10;;
70985;SDS011;58645;43.068;25.610;2022-12-18T06:33:50;11.35;;;5.47;;
70985;SDS011;58645;43.068;25.610;2022-12-18T06:36:18;15.05;;;6.40;;
70985;SDS011;58645;43.068;25.610;2022-12-18T06:41:11;13.55;;;6.65;;
70985;SDS011;58645;43.068;25.610;2022-12-18T06:43:41;13.18;;;6.45;;
70985;SDS011;58645;43.068;25.610;2022-12-18T06:46:08;14.05;;;6.80;;
70985;SDS011;58645;43.068;25.610;2022-12-18T06:48:34;12.57;;;6.75;;
70985;SDS011;58645;43.068;25.610;2022-12-18T06:51:00;15.60;;;7.32;;
70985;SDS011;58645;43.068;25.610;2022-12-18T06:53:26;14.18;;;6.93;;
70985;SDS011;58645;43.068;25.610;2022-12-18T06:56:00;14.05;;;7.28;;
70985;SDS011;58645;43.068;25.610;2022-12-18T06:58:26;14.45;;;7.63;;
70985;SDS011;58645;43.068;25.610;2022-12-18T07:00:52;13.65;;;7.55;;
70985;SDS011;58645;43.068;25.610;2022-12-18T07:03:18;16.02;;;7.72;;
70985;SDS011;58645;43.068;25.610;2022-12-18T07:05:44;15.70;;;8.05;;
70985;SDS011;58645;43.068;25.610;2022-12-18T07:08:09;16.67;;;8.02;;
70985;SDS011;58645;43.068;25.610;2022-12-18T07:10:42;17.75;;;9.07;;
70985;SDS011;58645;43.068;25.610;2022-12-18T07:13:08;19.40;;;10.55;;
70985;SDS011;58645;43.068;25.610;2022-12-18T07:15:34;22.40;;;12.63;;
70985;SDS011;58645;43.068;25.610;2022-12-18T07:17:59;37.75;;;18.77;;
70985;SDS011;58645;43.068;25.610;2022-12-18T07:20:25;65.25;;;33.97;;
70985;SDS011;58645;43.068;25.610;2022-12-18T07:22:51;57.92;;;29.40;;
70985;SDS011;58645;43.068;25.610;2022-12-18T07:25:16;50.72;;;25.95;;
70985;SDS011;58645;43.068;25.610;2022-12-18T07:27:42;45.13;;;23.60;;
70985;SDS011;58645;43.068;25.610;2022-12-18T07:30:08;33.17;;;16.77;;
70985;SDS011;58645;43.068;25.610;2022-12-18T07:32:34;26.58;;;14.48;;
70985;SDS011;58645;43.068;25.610;2022-12-18T07:35:00;25.35;;;12.95;;
70985;SDS011;58645;43.068;25.610;2022-12-18T07:37:26;23.17;;;11.82;;
70985;SDS011;58645;43.068;25.610;2022-12-18T07:39:51;17.60;;;8.27;;
70985;SDS011;58645;43.068;25.610;2022-12-18T07:42:17;17.48;;;9.05;;
70985;SDS011;58645;43.068;25.610;2022-12-18T07:44:58;15.77;;;8.75;;
70985;SDS011;58645;43.068;25.610;2022-12-18T07:47:28;19.42;;;9.77;;
70985;SDS011;58645;43.068;25.610;2022-12-18T07:49:53;15.73;;;8.70;;
70985;SDS011;58645;43.068;25.610;2022-12-18T07:52:20;17.48;;;9.63;;
70985;SDS011;58645;43.068;25.610;2022-12-18T07:54:46;14.57;;;8.07;;
70985;SDS011;58645;43.068;25.610;2022-12-18T07:57:13;17.58;;;8.70;;
70985;SDS011;58645;43.068;25.610;2022-12-18T07:59:40;14.75;;;8.25;;
70985;SDS011;58645;43.068;25.610;2022-12-18T08:02:06;14.50;;;8.10;;
70985;SDS011;58645;43.068;25.610;2022-12-18T08:04:31;12.07;;;6.47;;
70985;SDS011;58645;43.068;25.610;2022-12-18T08:06:57;12.93;;;7.05;;
70985;SDS011;58645;43.068;25.610;2022-12-18T08:09:23;12.65;;;5.97;;
70985;SDS011;58645;43.068;25.610;2022-12-18T08:11:48;10.90;;;6.03;;
70985;SDS011;58645;43.068;25.610;2022-12-18T08:14:14;12.05;;;5.93;;
70985;SDS011;58645;43.068;25.610;2022-12-18T08:16:40;12.77;;;6.47;;
70985;SDS011;58645;43.068;25.610;2022-12-18T08:19:05;14.27;;;6.75;;
70985;SDS011;58645;43.068;25.610;2022-12-18T08:21:31;14.13;;;6.88;;
70985;SDS011;58645;43.068;25.610;2022-12-18T08:23:58;11.52;;;6.47;;
70985;SDS011;58645;43.068;25.610;2022-12-18T08:26:25;14.25;;;7.45;;
70985;SDS011;58645;43.068;25.610;2022-12-18T08:28:54;12.82;;;6.78;;
70985;SDS011;58645;43.068;25.610;2022-12-18T08:31:21;11.60;;;6.00;;
70985;SDS011;58645;43.068;25.610;2022-12-18T08:33:51;12.32;;;6.20;;
70985;SDS011;58645;43.068;25.610;2022-12-18T08:36:18;12.82;;;6.72;;
70985;SDS011;58645;43.068;25.610;2022-12-18T08:38:45;12.90;;;7.07;;
70985;SDS011;58645;43.068;25.610;2022-12-18T08:43:38;17.33;;;7.38;;
70985;SDS011;58645;43.068;25.610;2022-12-18T08:46:23;15.13;;;7.05;;
70985;SDS011;58645;43.068;25.610;2022-12-18T08:48:51;14.80;;;7.80;;
70985;SDS011;58645;43.068;25.610;2022-12-18T08:51:17;14.13;;;7.55;;
70985;SDS011;58645;43.068;25.610;2022-12-18T08:53:44;14.23;;;7.90;;
70985;SDS011;58645;43.068;25.610;2022-12-18T08:56:10;14.98;;;7.90;;
70985;SDS011;58645;43.068;25.610;2022-12-18T08:58:36;13.55;;;7.18;;
70985;SDS011;58645;43.068;25.610;2022-12-18T09:01:02;13.23;;;6.80;;
70985;SDS011;58645;43.068;25.610;2022-12-18T09:03:29;14.95;;;7.95;;
70985;SDS011;58645;43.068;25.610;2022-12-18T09:05:55;16.27;;;7.95;;
70985;SDS011;58645;43.068;25.610;2022-12-18T09:08:21;19.10;;;8.63;;
70985;SDS011;58645;43.068;25.610;2022-12-18T09:10:48;13.90;;;7.10;;
70985;SDS011;58645;43.068;25.610;2022-12-18T09:13:15;15.90;;;8.23;;
70985;SDS011;58645;43.068;25.610;2022-12-18T09:18:07;14.27;;;7.40;;
70985;SDS011;58645;43.068;25.610;2022-12-18T09:20:34;15.30;;;7.25;;
70985;SDS011;58645;43.068;25.610;2022-12-18T09:23:01;14.20;;;7.18;;
70985;SDS011;58645;43.068;25.610;2022-12-18T09:25:28;16.63;;;7.53;;
70985;SDS011;58645;43.068;25.610;2022-12-18T09:27:58;14.20;;;7.72;;
70985;SDS011;58645;43.068;25.610;2022-12-18T09:30:25;12.50;;;6.47;;
70985;SDS011;58645;43.068;25.610;2022-12-18T09:32:51;17.58;;;7.80;;
70985;SDS011;58645;43.068;25.610;2022-12-18T09:35:17;14.15;;;6.75;;
70985;SDS011;58645;43.068;25.610;2022-12-18T09:37:43;14.65;;;6.82;;
70985;SDS011;58645;43.068;25.610;2022-12-18T09:40:16;13.65;;;6.88;;
70985;SDS011;58645;43.068;25.610;2022-12-18T09:43:28;11.70;;;6.60;;
70985;SDS011;58645;43.068;25.610;2022-12-18T09:45:41;12.15;;;5.28;;
70985;SDS011;58645;43.068;25.610;2022-12-18T09:48:15;13.55;;;6.63;;
70985;SDS011;58645;43.068;25.610;2022-12-18T09:50:50;16.15;;;7.28;;
70985;SDS011;58645;43.068;25.610;2022-12-18T09:53:21;13.27;;;6.50;;
70985;SDS011;58645;43.068;25.610;2022-12-18T09:55:55;15.15;;;7.38;;
70985;SDS011;58645;43.068;25.610;2022-12-18T10:01:09;13.63;;;7.32;;
70985;SDS011;58645;43.068;25.610;2022-12-18T10:03:47;13.82;;;6.47;;
70985;SDS011;58645;43.068;25.610;2022-12-18T10:06:15;11.57;;;6.40;;
70985;SDS011;58645;43.068;25.610;2022-12-18T10:08:51;11.98;;;6.43;;
70985;SDS011;58645;43.068;25.610;2022-12-18T10:16:47;14.13;;;7.32;;
70985;SDS011;58645;43.068;25.610;2022-12-18T10:19:45;17.13;;;6.97;;
70985;SDS011;58645;43.068;25.610;2022-12-18T10:25:20;13.32;;;7.05;;
70985;SDS011;58645;43.068;25.610;2022-12-18T10:27:57;14.98;;;7.50;;
70985;SDS011;58645;43.068;25.610;2022-12-18T10:30:32;13.98;;;6.78;;
70985;SDS011;58645;43.068;25.610;2022-12-18T10:33:00;13.18;;;6.80;;
70985;SDS011;58645;43.068;25.610;2022-12-18T10:35:27;12.32;;;6.32;;
70985;SDS011;58645;43.068;25.610;2022-12-18T10:43:24;13.00;;;6.70;;
70985;SDS011;58645;43.068;25.610;2022-12-18T10:49:17;14.60;;;7.00;;
70985;SDS011;58645;43.068;25.610;2022-12-18T10:51:23;11.02;;;6.32;;
70985;SDS011;58645;43.068;25.610;2022-12-18T10:53:52;13.05;;;6.55;;
70985;SDS011;58645;43.068;25.610;2022-12-18T10:56:27;13.00;;;6.45;;
70985;SDS011;58645;43.068;25.610;2022-12-18T10:59:05;13.93;;;7.35;;
70985;SDS011;58645;43.068;25.610;2022-12-18T11:01:45;12.05;;;6.38;;
70985;SDS011;58645;43.068;25.610;2022-12-18T11:04:13;13.88;;;6.70;;
70985;SDS011;58645;43.068;25.610;2022-12-18T11:06:53;11.25;;;6.05;;
70985;SDS011;58645;43.068;25.610;2022-12-18T11:09:28;14.35;;;6.63;;
70985;SDS011;58645;43.068;25.610;2022-12-18T11:11:57;11.43;;;6.15;;
70985;SDS011;58645;43.068;25.610;2022-12-18T11:16:56;11.38;;;5.95;;
70985;SDS011;58645;43.068;25.610;2022-12-18T11:21:56;11.10;;;5.88;;
70985;SDS011;58645;43.068;25.610;2022-12-18T11:24:32;10.23;;;6.20;;
70985;SDS011;58645;43.068;25.610;2022-12-18T11:27:20;11.80;;;5.47;;
70985;SDS011;58645;43.068;25.610;2022-12-18T11:29:45;10.77;;;5.70;;
70985;SDS011;58645;43.068;25.610;2022-12-18T11:34:41;13.82;;;6.63;;
70985;SDS011;58645;43.068;25.610;2022-12-18T11:37:11;13.32;;;6.40;;
70985;SDS011;58645;43.068;25.610;2022-12-18T11:39:40;12.70;;;6.68;;
70985;SDS011;58645;43.068;25.610;2022-12-18T11:42:17;11.00;;;6.10;;
70985;SDS011;58645;43.068;25.610;2022-12-18T11:44:54;11.10;;;5.72;;
70985;SDS011;58645;43.068;25.610;2022-12-18T11:47:45;11.80;;;6.32;;
70985;SDS011;58645;43.068;25.610;2022-12-18T11:53:11;12.30;;;6.07;;
70985;SDS011;58645;43.068;25.610;2022-12-18T11:58:24;10.23;;;5.25;;
70985;SDS011;58645;43.068;25.610;2022-12-18T12:01:16;12.05;;;5.97;;
70985;SDS011;58645;43.068;25.610;2022-12-18T12:06:50;17.05;;;7.70;;
70985;SDS011;58645;43.068;25.610;2022-12-18T12:14:56;16.95;;;8.93;;
70985;SDS011;58645;43.068;25.610;2022-12-18T12:23:24;18.15;;;9.13;;
70985;SDS011;58645;43.068;25.610;2022-12-18T12:26:11;17.52;;;8.20;;
70985;SDS011;58645;43.068;25.610;2022-12-18T12:40:10;15.75;;;6.57;;
70985;SDS011;58645;43.068;25.610;2022-12-18T12:42:39;16.58;;;8.48;;
70985;SDS011;58645;43.068;25.610;2022-12-18T12:45:36;19.73;;;9.52;;
70985;SDS011;58645;43.068;25.610;2022-12-18T12:48:09;17.58;;;8.23;;
70985;SDS011;58645;43.068;25.610;2022-12-18T12:50:41;20.80;;;9.40;;
70985;SDS011;58645;43.068;25.610;2022-12-18T12:53:08;20.38;;;8.57;;
70985;SDS011;58645;43.068;25.610;2022-12-18T12:55:40;20.63;;;9.38;;
70985;SDS011;58645;43.068;25.610;2022-12-18T13:00:39;17.80;;;9.15;;
70985;SDS011;58645;43.068;25.610;2022-12-18T13:05:58;19.98;;;8.40;;
70985;SDS011;58645;43.068;25.610;2022-12-18T13:08:32;21.85;;;9.00;;
70985;SDS011;58645;43.068;25.610;2022-12-18T13:11:28;17.17;;;9.25;;
70985;SDS011;58645;43.068;25.610;2022-12-18T13:14:31;18.48;;;8.85;;
70985;SDS011;58645;43.068;25.610;2022-12-18T13:19:41;20.90;;;10.00;;
70985;SDS011;58645;43.068;25.610;2022-12-18T13:22:34;19.08;;;8.75;;
70985;SDS011;58645;43.068;25.610;2022-12-18T13:25:02;20.02;;;9.15;;
70985;SDS011;58645;43.068;25.610;2022-12-18T13:38:21;21.20;;;9.10;;
70985;SDS011;58645;43.068;25.610;2022-12-18T13:40:57;18.73;;;9.27;;
70985;SDS011;58645;43.068;25.610;2022-12-18T13:46:19;20.75;;;10.23;;
70985;SDS011;58645;43.068;25.610;2022-12-18T13:48:49;20.70;;;9.38;;
70985;SDS011;58645;43.068;25.610;2022-12-18T13:51:28;21.05;;;9.95;;
70985;SDS011;58645;43.068;25.610;2022-12-18T13:54:06;24.33;;;10.00;;
70985;SDS011;58645;43.068;25.610;2022-12-18T13:56:48;20.38;;;9.23;;
70985;SDS011;58645;43.068;25.610;2022-12-18T13:59:16;21.80;;;9.43;;
70985;SDS011;58645;43.068;25.610;2022-12-18T14:04:24;17.50;;;8.88;;
70985;SDS011;58645;43.068;25.610;2022-12-18T14:07:07;17.65;;;8.93;;
70985;SDS011;58645;43.068;25.610;2022-12-18T14:09:56;19.90;;;9.25;;
70985;SDS011;58645;43.068;25.610;2022-12-18T14:12:25;20.67;;;9.38;;
70985;SDS011;58645;43.068;25.610;2022-12-18T14:17:45;18.45;;;9.57;;
70985;SDS011;58645;43.068;25.610;2022-12-18T14:22:39;18.60;;;9.32;;
70985;SDS011;58645;43.068;25.610;2022-12-18T14:27:41;22.00;;;10.27;;
70985;SDS011;58645;43.068;25.610;2022-12-18T14:35:34;22.70;;;10.02;;
70985;SDS011;58645;43.068;25.610;2022-12-18T14:40:46;22.75;;;10.65;;
70985;SDS011;58645;43.068;25.610;2022-12-18T14:43:20;21.15;;;11.05;;
70985;SDS011;58645;43.068;25.610;2022-12-18T14:45:46;22.00;;;10.68;;
70985;SDS011;58645;43.068;25.610;2022-12-18T14:51:16;22.25;;;10.20;;
70985;SDS011;58645;43.068;25.610;2022-12-18T14:53:47;19.17;;;9.20;;
70985;SDS011;58645;43.068;25.610;2022-12-18T14:59:29;22.05;;;10.70;;
70985;SDS011;58645;43.068;25.610;2022-12-18T15:02:25;20.88;;;10.82;;
70985;SDS011;58645;43.068;25.610;2022-12-18T15:04:37;21.30;;;9.40;;
70985;SDS011;58645;43.068;25.610;2022-12-18T15:07:16;22.33;;;9.50;;
70985;SDS011;58645;43.068;25.610;2022-12-18T15:17:59;25.25;;;11.57;;
70985;SDS011;58645;43.068;25.610;2022-12-18T15:20:26;28.38;;;11.23;;
70985;SDS011;58645;43.068;25.610;2022-12-18T15:22:53;24.52;;;10.80;;
70985;SDS011;58645;43.068;25.610;2022-12-18T15:25:37;25.02;;;10.82;;
70985;SDS011;58645;43.068;25.610;2022-12-18T15:28:03;22.88;;;10.27;;
70985;SDS011;58645;43.068;25.610;2022-12-18T15:33:29;24.42;;;9.70;;
70985;SDS011;58645;43.068;25.610;2022-12-18T15:36:01;19.77;;;9.90;;
70985;SDS011;58645;43.068;25.610;2022-12-18T15:38:33;18.63;;;9.30;;
70985;SDS011;58645;43.068;25.610;2022-12-18T15:40:58;23.02;;;9.45;;
70985;SDS011;58645;43.068;25.610;2022-12-18T15:43:24;25.08;;;11.18;;
70985;SDS011;58645;43.068;25.610;2022-12-18T15:48:27;26.17;;;11.77;;
70985;SDS011;58645;43.068;25.610;2022-12-18T15:50:53;23.83;;;10.43;;
70985;SDS011;58645;43.068;25.610;2022-12-18T15:53:22;23.95;;;11.02;;
70985;SDS011;58645;43.068;25.610;2022-12-18T15:55:50;22.88;;;10.55;;
70985;SDS011;58645;43.068;25.610;2022-12-18T15:58:35;21.70;;;10.45;;
70985;SDS011;58645;43.068;25.610;2022-12-18T16:01:00;18.27;;;8.70;;
70985;SDS011;58645;43.068;25.610;2022-12-18T16:03:26;22.90;;;10.57;;
70985;SDS011;58645;43.068;25.610;2022-12-18T16:05:52;23.58;;;10.55;;
70985;SDS011;58645;43.068;25.610;2022-12-18T16:08:18;22.85;;;10.98;;
70985;SDS011;58645;43.068;25.610;2022-12-18T16:10:44;25.65;;;11.85;;
70985;SDS011;58645;43.068;25.610;2022-12-18T16:13:10;29.15;;;12.40;;
70985;SDS011;58645;43.068;25.610;2022-12-18T16:15:37;25.90;;;11.63;;
70985;SDS011;58645;43.068;25.610;2022-12-18T16:18:03;24.77;;;10.60;;
70985;SDS011;58645;43.068;25.610;2022-12-18T16:20:29;20.60;;;10.35;;
70985;SDS011;58645;43.068;25.610;2022-12-18T16:22:54;21.98;;;9.93;;
70985;SDS011;58645;43.068;25.610;2022-12-18T16:25:21;27.27;;;10.75;;
70985;SDS011;58645;43.068;25.610;2022-12-18T16:27:49;23.73;;;9.98;;
70985;SDS011;58645;43.068;25.610;2022-12-18T16:30:20;21.58;;;10.43;;
70985;SDS011;58645;43.068;25.610;2022-12-18T16:32:47;20.98;;;9.13;;
70985;SDS011;58645;43.068;25.610;2022-12-18T16:35:13;21.02;;;10.18;;
70985;SDS011;58645;43.068;25.610;2022-12-18T16:37:41;23.10;;;10.93;;
70985;SDS011;58645;43.068;25.610;2022-12-18T16:40:08;24.00;;;10.52;;
70985;SDS011;58645;43.068;25.610;2022-12-18T16:42:36;30.02;;;11.40;;
70985;SDS011;58645;43.068;25.610;2022-12-18T16:45:04;25.35;;;10.55;;
70985;SDS011;58645;43.068;25.610;2022-12-18T16:47:31;24.95;;;11.18;;
70985;SDS011;58645;43.068;25.610;2022-12-18T16:49:56;24.77;;;11.00;;
70985;SDS011;58645;43.068;25.610;2022-12-18T16:52:22;24.30;;;10.50;;
70985;SDS011;58645;43.068;25.610;2022-12-18T16:54:48;27.02;;;11.05;;
70985;SDS011;58645;43.068;25.610;2022-12-18T16:57:15;25.40;;;10.55;;
70985;SDS011;58645;43.068;25.610;2022-12-18T16:59:42;22.75;;;10.18;;
70985;SDS011;58645;43.068;25.610;2022-12-18T17:02:21;20.63;;;9.13;;
70985;SDS011;58645;43.068;25.610;2022-12-18T17:04:49;25.83;;;10.38;;
70985;SDS011;58645;43.068;25.610;2022-12-18T17:07:17;24.42;;;10.73;;
70985;SDS011;58645;43.068;25.610;2022-12-18T17:09:43;25.60;;;9.82;;
70985;SDS011;58645;43.068;25.610;2022-12-18T17:12:09;22.83;;;10.70;;
70985;SDS011;58645;43.068;25.610;2022-12-18T17:14:35;22.38;;;10.95;;
70985;SDS011;58645;43.068;25.610;2022-12-18T17:17:01;24.23;;;10.18;;
70985;SDS011;58645;43.068;25.610;2022-12-18T17:19:27;24.42;;;10.38;;
70985;SDS011;58645;43.068;25.610;2022-12-18T17:21:53;24.45;;;11.05;;
70985;SDS011;58645;43.068;25.610;2022-12-18T17:24:20;27.95;;;11.98;;
70985;SDS011;58645;43.068;25.610;2022-12-18T17:26:45;26.85;;;11.38;;
70985;SDS011;58645;43.068;25.610;2022-12-18T17:29:16;23.67;;;11.35;;